Time;durP1;ratioP1;P1;durP2;ratioP2;P2;SDS_P1;SDS_P2;PMS_P1;PMS_P2;Temp;Humidity;BMP_temperature;BMP_pressure;BME280_temperature;BME280_humidity;BME280_pressure;Samples;Min_cycle;Max_cycle;Signal;HPM_P1;HPM_P2
2022/07/13 00:09:37;;;;;;;5.65;2.03;;;;;;;18.08;100.00;101042.66;20898540;28;20059;-68
2022/07/13 00:19:38;;;;;;;3.83;1.77;;;;;;;17.88;100.00;101027.47;20898923;28;20183;-67
2022/07/13 00:29:40;;;;;;;3.60;1.70;;;;;;;17.87;100.00;101025.75;20899575;28;20041;-68
2022/07/13 00:39:41;;;;;;;3.78;1.70;;;;;;;17.85;100.00;101024.06;20898334;28;20140;-67
2022/07/13 00:49:43;;;;;;;4.85;1.50;;;;;;;18.00;100.00;101020.00;20897957;28;20051;-67
2022/07/13 00:59:46;;;;;;;3.90;1.67;;;;;;;17.89;100.00;101017.75;20910892;28;20056;-67
2022/07/13 01:09:47;;;;;;;3.53;1.90;;;;;;;17.52;100.00;101020.78;20911790;28;20053;-68
2022/07/13 01:19:50;;;;;;;4.53;1.55;;;;;;;17.50;100.00;101020.84;20911241;28;20049;-68
2022/07/13 01:29:52;;;;;;;3.15;1.52;;;;;;;17.64;100.00;101008.00;20911010;28;20057;-68
2022/07/13 01:39:53;;;;;;;3.72;1.45;;;;;;;17.71;100.00;100995.38;20909087;28;20049;-67
2022/07/13 01:49:54;;;;;;;3.85;1.80;;;;;;;17.78;100.00;100993.44;20910053;28;20498;-68
2022/07/13 02:00:00;;;;;;;4.85;1.70;;;;;;;17.69;100.00;100979.56;20908417;28;20057;-68
2022/07/13 02:10:04;;;;;;;2.85;1.77;;;;;;;17.63;100.00;100974.50;20906450;28;20056;-68
2022/07/13 02:20:07;;;;;;;3.97;1.70;;;;;;;16.99;100.00;100976.69;20906556;28;20135;-67
2022/07/13 02:30:13;;;;;;;5.93;2.00;;;;;;;16.74;100.00;100979.25;20906176;28;20045;-68
2022/07/13 02:40:15;;;;;;;5.75;1.77;;;;;;;16.70;100.00;100974.09;20905326;28;20049;-68
2022/07/13 02:50:21;;;;;;;3.90;1.67;;;;;;;16.63;100.00;100968.13;20904701;28;20053;-68
2022/07/13 03:00:22;;;;;;;3.60;1.80;;;;;;;16.34;100.00;100959.34;20903634;28;20128;-68
2022/07/13 03:10:24;;;;;;;5.38;2.88;;;;;;;16.22;100.00;100961.47;20904284;28;20064;-68
2022/07/13 03:20:25;;;;;;;6.70;1.95;;;;;;;16.11;100.00;100957.38;20901870;28;20490;-68
2022/07/13 03:30:28;;;;;;;3.60;2.10;;;;;;;16.10;100.00;100928.38;20901639;28;20048;-68
2022/07/13 03:40:29;;;;;;;4.97;2.00;;;;;;;15.96;100.00;100934.06;20901484;28;20049;-68
2022/07/13 03:50:31;;;;;;;6.65;2.40;;;;;;;15.87;100.00;100947.53;20900824;28;20044;-68
2022/07/13 04:00:33;;;;;;;3.05;1.90;;;;;;;15.99;100.00;100933.94;20899475;28;20135;-69
2022/07/13 04:10:34;;;;;;;6.57;2.50;;;;;;;16.23;100.00;100944.69;20897751;28;20056;-68
2022/07/13 04:20:36;;;;;;;4.65;2.30;;;;;;;16.36;100.00;100946.06;20898077;28;20045;-68
2022/07/13 04:30:37;;;;;;;4.38;2.08;;;;;;;16.26;100.00;100948.13;20905011;28;20041;-68
2022/07/13 04:40:39;;;;;;;4.53;2.15;;;;;;;16.62;100.00;100934.66;20913126;28;20055;-69
2022/07/13 04:50:42;;;;;;;4.72;1.90;;;;;;;17.13;100.00;100923.31;20913045;28;20151;-69
2022/07/13 05:00:43;;;;;;;6.15;2.10;;;;;;;17.02;100.00;100925.47;20912286;28;20051;-69
2022/07/13 05:11:05;;;;;;;6.32;2.38;;;;;;;17.28;100.00;100933.34;20913218;28;20056;-70
2022/07/13 05:21:07;;;;;;;4.20;2.30;;;;;;;17.53;100.00;100941.28;20911137;28;20551;-70
2022/07/13 05:31:09;;;;;;;6.75;2.28;;;;;;;17.83;100.00;100941.16;20909938;28;20049;-71
2022/07/13 05:41:10;;;;;;;5.43;2.65;;;;;;;17.97;100.00;100952.09;20908323;28;20095;-71
2022/07/13 05:51:12;;;;;;;5.80;2.47;;;;;;;18.26;100.00;100958.06;20909513;28;20129;-70
2022/07/13 06:01:34;;;;;;;6.82;2.78;;;;;;;18.89;100.00;100957.31;20879111;28;20038;-71
2022/07/13 06:11:35;;;;;;;2.85;1.58;;;;;;;19.42;100.00;100948.84;20905290;28;20049;-69
2022/07/13 06:21:37;;;;;;;3.40;1.90;;;;;;;20.36;100.00;100931.31;20904538;28;20041;-69
2022/07/13 06:31:38;;;;;;;3.92;1.80;;;;;;;20.54;92.41;100949.09;20893424;28;20565;-70
2022/07/13 06:41:40;;;;;;;2.40;1.38;;;;;;;20.90;86.41;100937.59;20889566;28;20443;-69
2022/07/13 06:51:42;;;;;;;3.17;1.40;;;;;;;21.19;80.14;100933.44;20823090;28;20037;-70
2022/07/13 07:01:43;;;;;;;2.42;1.48;;;;;;;22.09;77.40;100942.00;20822627;28;20135;-70
2022/07/13 07:11:46;;;;;;;5.88;1.35;;;;;;;21.99;74.60;100941.63;20845834;28;20053;-71
2022/07/13 07:21:48;;;;;;;4.35;1.30;;;;;;;22.60;72.87;100931.16;20840755;28;20522;-69
2022/07/13 07:31:49;;;;;;;2.65;1.10;;;;;;;22.61;70.97;100938.22;20892471;28;20413;-70
2022/07/13 07:41:51;;;;;;;4.43;1.50;;;;;;;22.77;72.67;100936.41;20839490;28;20050;-69
2022/07/13 07:51:53;;;;;;;3.90;1.15;;;;;;;22.37;70.95;100943.13;20811143;28;20071;-67
2022/07/13 08:02:15;;;;;;;7.80;1.25;;;;;;;22.95;69.33;100931.84;20809278;28;20494;-67
2022/07/13 08:12:16;;;;;;;1.70;0.90;;;;;;;23.61;62.50;100903.78;20832600;28;20490;-68
2022/07/13 08:22:18;;;;;;;3.17;1.10;;;;;;;23.83;58.80;100909.56;20891257;28;20074;-65
2022/07/13 08:32:20;;;;;;;5.25;1.30;;;;;;;24.29;58.01;100896.78;20890517;28;20049;-68
2022/07/13 08:42:21;;;;;;;9.15;1.50;;;;;;;25.37;56.33;100894.94;20890226;28;20055;-65
2022/07/13 08:52:25;;;;;;;2.85;0.90;;;;;;;25.28;52.21;100897.31;20889958;28;20048;-64
2022/07/13 09:02:27;;;;;;;2.65;1.08;;;;;;;25.14;53.54;100900.06;20888890;28;20498;-66
2022/07/13 09:12:29;;;;;;;1.65;0.70;;;;;;;26.06;45.53;100888.22;20864027;28;20434;-67
2022/07/13 09:22:31;;;;;;;1.73;0.60;;;;;;;27.11;41.12;100890.25;20821013;28;20643;-67
2022/07/13 09:32:33;;;;;;;1.50;0.77;;;;;;;27.34;41.06;100888.47;20819791;28;20059;-67
2022/07/13 09:42:40;;;;;;;3.65;0.60;;;;;;;27.41;36.30;100876.25;20820900;28;20071;-67
2022/07/13 09:52:43;;;;;;;1.45;0.65;;;;;;;27.53;36.53;100888.72;20818946;28;20046;-67
2022/07/13 10:02:49;;;;;;;1.57;0.83;;;;;;;27.68;37.09;100875.03;20818081;28;20056;-67
2022/07/13 10:12:51;;;;;;;0.98;0.70;;;;;;;28.49;36.81;100865.75;20846531;28;20076;-67
2022/07/13 10:22:53;;;;;;;1.40;0.60;;;;;;;28.21;35.44;100868.00;20899094;28;20056;-68
2022/07/13 10:33:21;;;;;;;2.72;0.70;;;;;;;29.09;31.55;100859.75;20897212;28;20045;-67
2022/07/13 10:43:23;;;;;;;3.03;0.70;;;;;;;28.96;29.05;100839.34;20897573;28;20045;-70
2022/07/13 10:53:37;;;;;;;1.55;0.57;;;;;;;28.59;28.59;100835.22;20896261;28;20044;-69
2022/07/13 11:03:46;;;;;;;3.03;0.68;;;;;;;29.67;30.10;100820.56;20895502;28;20155;-70
2022/07/13 11:13:49;;;;;;;1.30;0.57;;;;;;;30.12;30.39;100802.03;20858888;28;20052;-70
2022/07/13 11:34:15;;;;;;;1.92;0.60;;;;;;;31.10;29.11;100779.38;20809787;28;19941;-70
2022/07/13 11:44:31;;;;;;;0.88;0.47;;;;;;;31.36;30.35;100775.03;20815927;28;20037;-71
2022/07/13 11:54:32;;;;;;;1.83;0.60;;;;;;;31.63;29.00;100754.38;20809799;28;20054;-70
2022/07/13 12:04:43;;;;;;;2.35;0.50;;;;;;;31.59;24.14;100750.25;20809023;28;20123;-70
2022/07/13 12:14:45;;;;;;;0.65;0.40;;;;;;;31.23;24.58;100733.03;20852529;28;20052;-70
2022/07/13 12:24:47;;;;;;;1.20;0.40;;;;;;;30.55;25.88;100722.41;20889951;28;20156;-69
2022/07/13 12:34:52;;;;;;;0.83;0.40;;;;;;;30.95;24.96;100722.22;20890868;28;20057;-73
2022/07/13 12:44:53;;;;;;;1.40;0.45;;;;;;;30.73;24.98;100728.81;20890498;28;20045;-69
2022/07/13 12:54:55;;;;;;;5.00;0.73;;;;;;;30.91;25.42;100724.34;20901747;28;20144;-70
2022/07/13 13:04:57;;;;;;;1.80;0.37;;;;;;;30.90;23.90;100713.66;20905414;28;20051;-69
2022/07/13 13:14:59;;;;;;;3.00;0.50;;;;;;;30.47;24.93;100695.25;20858934;28;20072;-70
2022/07/13 13:25:00;;;;;;;0.40;0.28;;;;;;;30.68;25.95;100698.63;20819654;28;20053;-70
2022/07/13 13:35:02;;;;;;;1.15;0.50;;;;;;;30.23;28.88;100696.59;20820553;28;20421;-69
2022/07/13 13:45:04;;;;;;;1.83;0.50;;;;;;;29.81;29.61;100686.06;20820451;28;20509;-69
2022/07/13 13:55:06;;;;;;;3.20;0.90;;;;;;;29.51;30.72;100664.53;20818975;28;20057;-69
2022/07/13 14:05:08;;;;;;;2.75;0.90;;;;;;;29.56;39.71;100657.78;20817390;28;20046;-70
2022/07/13 14:15:10;;;;;;;2.10;0.90;;;;;;;29.64;38.64;100670.56;20864325;28;20087;-72
2022/07/13 14:25:11;;;;;;;1.13;0.60;;;;;;;30.44;30.09;100657.75;20899479;28;20490;-70
2022/07/13 14:35:13;;;;;;;2.92;0.55;;;;;;;30.73;29.91;100658.53;20897336;28;20139;-71
2022/07/13 14:45:14;;;;;;;0.63;0.40;;;;;;;30.84;29.92;100647.53;20897727;28;20059;-70
2022/07/13 14:55:17;;;;;;;2.15;0.60;;;;;;;30.95;26.38;100629.38;20897023;28;20132;-71
2022/07/13 15:05:19;;;;;;;;;;;;;;;31.03;26.65;100611.41;20897188;28;20525;-71
2022/07/13 15:15:20;;;;;;;2.50;0.40;;;;;;;30.71;28.04;100627.22;20847044;28;20334;-70
2022/07/13 15:25:32;;;;;;;2.03;0.70;;;;;;;30.67;29.60;100605.03;20813055;28;20076;-67
2022/07/13 15:35:33;;;;;;;3.60;0.53;;;;;;;30.54;27.61;100601.81;20810948;28;20457;-67
2022/07/13 15:45:35;;;;;;;3.25;0.73;;;;;;;31.08;28.50;100595.56;20813208;28;20045;-68
2022/07/13 15:55:37;;;;;;;3.23;0.50;;;;;;;32.04;25.15;100576.88;20802753;28;20784;-68
2022/07/13 16:05:38;;;;;;;2.70;0.70;;;;;;;31.92;24.36;100573.59;20798955;28;20555;-68
2022/07/13 16:15:40;;;;;;;2.80;0.63;;;;;;;32.11;23.27;100569.00;20859852;28;20064;-69
2022/07/13 16:25:43;;;;;;;1.60;0.50;;;;;;;31.25;24.33;100569.56;20895157;28;20496;-69
2022/07/13 16:35:45;;;;;;;2.27;0.50;;;;;;;31.28;25.04;100563.00;20905484;28;20056;-70
2022/07/13 16:45:46;;;;;;;4.28;0.90;;;;;;;31.31;26.41;100555.44;20905278;28;20053;-69
2022/07/13 16:55:47;;;;;;;3.15;0.63;;;;;;;30.87;26.90;100558.00;20905603;28;20055;-69
2022/07/13 17:05:49;;;;;;;2.75;0.70;;;;;;;30.70;28.08;100560.63;20905008;28;20425;-69
2022/07/13 17:15:51;;;;;;;2.70;0.85;;;;;;;30.63;29.36;100544.16;20822141;28;20497;-68
2022/07/13 17:25:52;;;;;;;2.37;0.80;;;;;;;30.78;29.59;100553.50;20820719;28;20042;-69
2022/07/13 17:35:54;;;;;;;2.00;0.90;;;;;;;30.53;30.97;100554.19;20637134;28;20054;-69
2022/07/13 17:45:55;;;;;;;2.63;1.33;;;;;;;30.76;31.12;100549.22;20574585;28;20047;-68
2022/07/13 17:55:59;;;;;;;3.03;1.00;;;;;;;30.97;30.70;100539.00;20575384;28;20174;-69
2022/07/13 18:06:01;;;;;;;1.95;0.95;;;;;;;30.33;32.72;100542.59;20606790;28;20426;-68
2022/07/13 18:16:04;;;;;;;2.10;0.80;;;;;;;29.77;32.75;100536.19;20654262;28;20492;-68
2022/07/13 18:43:51;;;;;;;3.60;1.25;;;;;;;28.60;39.02;100537.88;20872705;27;84371;-68
2022/07/13 19:03:01;;;;;;;5.72;1.33;;;;;;;27.51;43.07;100549.09;20748554;27;74616;-68
2022/07/13 19:13:03;;;;;;;5.63;1.33;;;;;;;27.04;44.98;100537.75;20712428;28;20053;-68
2022/07/13 19:23:04;;;;;;;10.23;1.42;;;;;;;26.72;46.83;100537.69;20714537;28;20410;-68
2022/07/13 19:33:05;;;;;;;5.13;1.58;;;;;;;26.23;49.86;100533.53;20712932;28;20056;-68
2022/07/13 19:43:07;;;;;;;4.03;1.10;;;;;;;25.89;50.27;100545.22;20713549;28;20054;-68
2022/07/13 19:53:08;;;;;;;4.45;0.98;;;;;;;25.53;51.26;100560.41;20714734;28;20370;-68
2022/07/13 20:03:10;;;;;;;5.10;1.55;;;;;;;25.31;53.12;100569.22;20712810;28;20136;-68
2022/07/13 20:13:12;;;;;;;3.92;1.70;;;;;;;24.93;55.89;100580.91;20634793;28;20057;-68
2022/07/13 20:23:14;;;;;;;5.03;1.47;;;;;;;24.62;57.19;100589.44;20576947;28;20055;-66
2022/07/13 20:33:16;;;;;;;2.83;0.90;;;;;;;24.40;57.73;100587.44;20576856;28;20523;-67
2022/07/13 20:43:17;;;;;;;2.13;1.00;;;;;;;24.28;57.22;100591.78;20576890;28;20050;-68
2022/07/13 20:53:21;;;;;;;4.55;1.10;;;;;;;24.04;60.95;100607.72;20575284;28;20145;-67
2022/07/13 21:03:23;;;;;;;6.32;1.20;;;;;;;23.80;63.31;100602.22;20574502;28;20039;-68
2022/07/13 21:13:24;;;;;;;3.38;1.15;;;;;;;23.66;64.14;100607.63;20608200;28;20100;-68
2022/07/13 21:23:25;;;;;;;4.07;1.13;;;;;;;23.36;67.41;100611.34;20653709;28;20046;-68
2022/07/13 21:33:27;;;;;;;2.83;1.20;;;;;;;22.87;73.22;100618.97;20652114;28;20065;-67
2022/07/13 21:43:28;;;;;;;3.55;1.38;;;;;;;22.87;73.26;100611.81;20651686;28;20434;-67
2022/07/13 21:53:30;;;;;;;3.65;1.23;;;;;;;22.75;77.24;100609.91;20651225;28;20454;-67
2022/07/13 22:03:31;;;;;;;3.20;1.40;;;;;;;22.72;81.20;100613.66;20651669;28;20046;-67
2022/07/13 22:13:33;;;;;;;2.95;1.48;;;;;;;22.70;81.86;100604.00;20657785;28;20098;-67
2022/07/13 22:23:34;;;;;;;5.10;1.20;;;;;;;22.72;80.17;100592.31;20657082;28;20074;-67
2022/07/13 22:33:38;;;;;;;4.30;1.20;;;;;;;22.90;67.78;100589.44;20656446;28;20053;-67
2022/07/13 22:43:39;;;;;;;3.28;1.10;;;;;;;22.26;74.29;100603.16;20655449;28;20414;-67
2022/07/13 22:53:40;;;;;;;2.72;1.10;;;;;;;22.51;64.38;100601.63;20654697;28;20061;-69
2022/07/13 23:03:42;;;;;;;2.08;1.02;;;;;;;22.33;72.01;100595.66;20653583;28;20519;-70
2022/07/13 23:13:44;;;;;;;2.88;1.50;;;;;;;22.08;73.31;100582.91;20655193;28;20065;-69
2022/07/13 23:23:45;;;;;;;7.20;1.30;;;;;;;21.74;77.45;100595.56;20654895;28;20054;-69
2022/07/13 23:33:46;;;;;;;3.10;1.13;;;;;;;21.46;80.98;100590.16;20653626;28;20050;-70
2022/07/13 23:43:48;;;;;;;2.97;1.15;;;;;;;21.13;85.44;100588.47;20660287;28;20056;-70
2022/07/13 23:53:49;;;;;;;2.53;1.13;;;;;;;20.90;84.99;100576.44;20668568;28;20057;-69
